Aérodrome :
LOGIN :

S'inscrire | Disclaimer

   EN    FR    IT 

 










Légende :    VFR   VFR Marginal   IFR   IFR Intensif   IFR Très Intensif
Visi : 
Plafond : 
>= 8 km
>= 3000ft
5 à 8 km
1000 à 3000 ft
1500m à 5 km
500 à 1000 ft
800 à 1500m
200 à 500 ft
< 800m
< 200 ft
Symboles :   Orages  Brouillard  Fortes neiges  Fortes précipitations  Vent > 20 kt
SIGMETs :   Divers  Orages  Givrage  Turbulence  Onde Orograph.  Cendres Volcan.






- Altitude de l'aérodrome : 1504 ft
- Code IATA : PNA


LEPP - Noain Pamplona

DERNIER METAR :
  • 250630Z 11004KT 080V150 9999 SCT022 05/03 Q1020

METARs EXPIRÉS :
  • 250600Z 13005KT 9999 SCT018 04/02 Q1020
  • 250530Z VRB02KT 9999 SCT015 BKN020 06/04 Q1020
  • 250500Z VRB02KT 9999 SCT015 05/04 Q1020
  • 250430Z 08001KT CAVOK 03/01 Q1020
  • 250400Z AUTO 01002KT CAVOK 02/M00 Q1019

TAF TAF LEPP
Valide du 25 à 03h jusqu'au 26 à 03h UTC


250200Z 2503/2603 VRB03KT CAVOK TX11/2513Z TNM00/2505Z
BECMG 2512/2515 34010KT
PROB40
TEMPO 2507/2518 3000 -RADZ BKN010 BKN014



MET'MAP, la Météo Aéronautique d'un coup d'oeil ! - Copyright ORBIFLY Décembre 2007 - Disclaimer

ORBIFLY MET'MAP TEAM :

Programmation & Développement : Alexandra Zaïnal
Sur une idée originale de : Baudouin d'Aumeries
Assistance à la programmation : Marc-Olivier Méhu
Soutien technique & logistique : Manuel Goepfert

Contact : metmap@orbifly.com




SOURCES & CREDITS :

   NOAA